Homer, Michigan
Current Conditions -  °F | °C
As of 3:34 PM on Monday 22 Dec 2014 (Local Time) from KRMY Reporting Station
Overcast Overcast  
Wind Chill: 30°   Ceiling: 7000
Heat Index: 37°   Visibility: 10mi
Dew Point: 29°   Wind: 10mph
Humidity: 73%   Direction: 100°E
Pressure: 29.87"   Gusts: NA
Location:  42.15°N, 84.81°W
Report Text: KRMY 222034Z AUTO 10009KT 10SM SCT055 OVC070 03/M01 A2987 RMK AO2 T00301015
Loading
Personal Weather Stations






























Interactive Weather Map New forecast layout! Learn more

10-Day Weather Forecast

Advertisements
Track Severe Weather on mobile